sensor_id;sensor_type;location;lat;lon;timestamp;P1;durP1;ratioP1;P2;durP2;ratioP2
75222;SDS011;63806;50.786;7.222;2022-09-27T00:00:20;1.20;;;0.10;;
75222;SDS011;63806;50.786;7.222;2022-09-27T00:02:45;2.83;;;0.10;;
75222;SDS011;63806;50.786;7.222;2022-09-27T00:05:13;2.75;;;0.20;;
75222;SDS011;63806;50.786;7.222;2022-09-27T00:07:39;2.60;;;0.60;;
75222;SDS011;63806;50.786;7.222;2022-09-27T00:10:04;0.80;;;0.05;;
75222;SDS011;63806;50.786;7.222;2022-09-27T00:12:30;0.85;;;0.15;;
75222;SDS011;63806;50.786;7.222;2022-09-27T00:14:56;1.20;;;0.00;;
75222;SDS011;63806;50.786;7.222;2022-09-27T00:17:21;1.90;;;0.10;;
75222;SDS011;63806;50.786;7.222;2022-09-27T00:19:47;1.77;;;0.10;;
75222;SDS011;63806;50.786;7.222;2022-09-27T00:22:12;0.87;;;0.10;;
75222;SDS011;63806;50.786;7.222;2022-09-27T00:24:38;0.80;;;0.00;;
75222;SDS011;63806;50.786;7.222;2022-09-27T00:27:03;0.83;;;0.17;;
75222;SDS011;63806;50.786;7.222;2022-09-27T00:29:28;1.50;;;0.10;;
75222;SDS011;63806;50.786;7.222;2022-09-27T00:31:54;1.15;;;0.10;;
75222;SDS011;63806;50.786;7.222;2022-09-27T00:34:21;2.33;;;0.37;;
75222;SDS011;63806;50.786;7.222;2022-09-27T00:36:48;1.73;;;0.00;;
75222;SDS011;63806;50.786;7.222;2022-09-27T00:39:15;2.78;;;1.38;;
75222;SDS011;63806;50.786;7.222;2022-09-27T00:41:40;1.88;;;0.13;;
75222;SDS011;63806;50.786;7.222;2022-09-27T00:51:51;0.95;;;0.00;;
75222;SDS011;63806;50.786;7.222;2022-09-27T00:54:21;1.27;;;0.10;;
75222;SDS011;63806;50.786;7.222;2022-09-27T00:56:50;0.75;;;0.10;;
75222;SDS011;63806;50.786;7.222;2022-09-27T00:59:22;2.28;;;0.17;;
75222;SDS011;63806;50.786;7.222;2022-09-27T01:01:50;1.77;;;0.00;;
75222;SDS011;63806;50.786;7.222;2022-09-27T01:04:17;2.95;;;0.00;;
75222;SDS011;63806;50.786;7.222;2022-09-27T01:06:48;0.90;;;0.10;;
75222;SDS011;63806;50.786;7.222;2022-09-27T01:09:13;0.63;;;0.10;;
75222;SDS011;63806;50.786;7.222;2022-09-27T01:21:49;2.17;;;0.00;;
75222;SDS011;63806;50.786;7.222;2022-09-27T01:38:01;0.47;;;0.00;;
75222;SDS011;63806;50.786;7.222;2022-09-27T01:40:33;0.88;;;0.80;;
75222;SDS011;63806;50.786;7.222;2022-09-27T01:43:12;2.15;;;0.88;;
75222;SDS011;63806;50.786;7.222;2022-09-27T01:45:47;1.88;;;0.32;;
75222;SDS011;63806;50.786;7.222;2022-09-27T01:48:23;1.05;;;0.93;;
75222;SDS011;63806;50.786;7.222;2022-09-27T01:53:32;1.10;;;0.10;;
75222;SDS011;63806;50.786;7.222;2022-09-27T01:56:05;0.63;;;0.00;;
75222;SDS011;63806;50.786;7.222;2022-09-27T02:01:18;1.58;;;0.08;;
75222;SDS011;63806;50.786;7.222;2022-09-27T02:03:47;0.65;;;0.00;;
75222;SDS011;63806;50.786;7.222;2022-09-27T02:06:18;0.40;;;0.10;;
75222;SDS011;63806;50.786;7.222;2022-09-27T02:08:58;0.93;;;0.00;;
75222;SDS011;63806;50.786;7.222;2022-09-27T02:11:27;1.83;;;0.88;;
75222;SDS011;63806;50.786;7.222;2022-09-27T02:16:50;0.60;;;0.00;;
75222;SDS011;63806;50.786;7.222;2022-09-27T02:19:20;0.30;;;0.00;;
75222;SDS011;63806;50.786;7.222;2022-09-27T02:21:58;0.60;;;0.10;;
75222;SDS011;63806;50.786;7.222;2022-09-27T02:24:43;1.23;;;0.00;;
75222;SDS011;63806;50.786;7.222;2022-09-27T02:27:20;0.30;;;0.10;;
75222;SDS011;63806;50.786;7.222;2022-09-27T02:30:05;0.50;;;0.00;;
75222;SDS011;63806;50.786;7.222;2022-09-27T02:32:34;1.95;;;0.10;;
75222;SDS011;63806;50.786;7.222;2022-09-27T02:35:01;0.63;;;0.17;;
75222;SDS011;63806;50.786;7.222;2022-09-27T02:37:31;0.52;;;0.10;;
75222;SDS011;63806;50.786;7.222;2022-09-27T02:39:58;0.85;;;0.20;;
75222;SDS011;63806;50.786;7.222;2022-09-27T02:42:24;0.70;;;0.10;;
75222;SDS011;63806;50.786;7.222;2022-09-27T02:44:50;1.58;;;1.08;;
75222;SDS011;63806;50.786;7.222;2022-09-27T02:50:15;0.73;;;0.00;;
75222;SDS011;63806;50.786;7.222;2022-09-27T03:06:23;0.43;;;0.10;;
75222;SDS011;63806;50.786;7.222;2022-09-27T03:08:50;0.30;;;0.15;;
75222;SDS011;63806;50.786;7.222;2022-09-27T03:11:15;0.95;;;0.05;;
75222;SDS011;63806;50.786;7.222;2022-09-27T03:13:41;0.40;;;0.00;;
75222;SDS011;63806;50.786;7.222;2022-09-27T03:16:08;0.98;;;0.10;;
75222;SDS011;63806;50.786;7.222;2022-09-27T03:18:33;0.63;;;0.10;;
75222;SDS011;63806;50.786;7.222;2022-09-27T03:20:59;1.02;;;0.13;;
75222;SDS011;63806;50.786;7.222;2022-09-27T03:23:25;0.38;;;0.00;;
75222;SDS011;63806;50.786;7.222;2022-09-27T03:25:50;1.10;;;0.00;;
75222;SDS011;63806;50.786;7.222;2022-09-27T03:28:16;0.20;;;0.20;;
75222;SDS011;63806;50.786;7.222;2022-09-27T03:30:45;0.47;;;0.00;;
75222;SDS011;63806;50.786;7.222;2022-09-27T03:33:11;1.65;;;0.10;;
75222;SDS011;63806;50.786;7.222;2022-09-27T03:35:37;2.88;;;0.00;;
75222;SDS011;63806;50.786;7.222;2022-09-27T03:38:02;1.38;;;1.08;;
75222;SDS011;63806;50.786;7.222;2022-09-27T03:40:28;0.32;;;0.15;;
75222;SDS011;63806;50.786;7.222;2022-09-27T03:42:54;0.60;;;0.05;;
75222;SDS011;63806;50.786;7.222;2022-09-27T03:45:19;0.40;;;0.10;;
75222;SDS011;63806;50.786;7.222;2022-09-27T03:47:45;1.05;;;0.00;;
75222;SDS011;63806;50.786;7.222;2022-09-27T03:50:12;0.40;;;0.10;;
75222;SDS011;63806;50.786;7.222;2022-09-27T03:52:38;1.33;;;1.08;;
75222;SDS011;63806;50.786;7.222;2022-09-27T03:55:03;1.83;;;0.35;;
75222;SDS011;63806;50.786;7.222;2022-09-27T03:57:29;0.85;;;0.10;;
75222;SDS011;63806;50.786;7.222;2022-09-27T03:59:55;0.75;;;0.00;;
75222;SDS011;63806;50.786;7.222;2022-09-27T04:02:23;0.40;;;0.03;;
75222;SDS011;63806;50.786;7.222;2022-09-27T04:04:49;1.65;;;0.00;;
75222;SDS011;63806;50.786;7.222;2022-09-27T04:07:15;0.83;;;0.07;;
75222;SDS011;63806;50.786;7.222;2022-09-27T04:09:42;1.95;;;1.13;;
75222;SDS011;63806;50.786;7.222;2022-09-27T04:12:08;1.60;;;0.10;;
75222;SDS011;63806;50.786;7.222;2022-09-27T04:14:34;5.63;;;0.10;;
75222;SDS011;63806;50.786;7.222;2022-09-27T04:16:59;1.65;;;0.00;;
75222;SDS011;63806;50.786;7.222;2022-09-27T04:19:25;0.40;;;0.00;;
75222;SDS011;63806;50.786;7.222;2022-09-27T04:21:50;0.30;;;0.13;;
75222;SDS011;63806;50.786;7.222;2022-09-27T04:24:15;2.63;;;0.00;;
75222;SDS011;63806;50.786;7.222;2022-09-27T04:26:41;1.40;;;0.10;;
75222;SDS011;63806;50.786;7.222;2022-09-27T04:29:06;0.40;;;0.40;;
75222;SDS011;63806;50.786;7.222;2022-09-27T04:31:33;2.45;;;0.40;;
75222;SDS011;63806;50.786;7.222;2022-09-27T04:34:00;1.15;;;0.00;;
75222;SDS011;63806;50.786;7.222;2022-09-27T04:36:25;8.75;;;0.38;;
75222;SDS011;63806;50.786;7.222;2022-09-27T04:38:52;6.70;;;0.68;;
75222;SDS011;63806;50.786;7.222;2022-09-27T04:41:19;6.28;;;0.32;;
75222;SDS011;63806;50.786;7.222;2022-09-27T04:43:45;6.63;;;1.27;;
75222;SDS011;63806;50.786;7.222;2022-09-27T04:46:11;7.80;;;0.20;;
75222;SDS011;63806;50.786;7.222;2022-09-27T04:48:37;9.27;;;0.05;;
75222;SDS011;63806;50.786;7.222;2022-09-27T04:51:03;9.52;;;0.10;;
75222;SDS011;63806;50.786;7.222;2022-09-27T04:53:29;4.47;;;0.17;;
75222;SDS011;63806;50.786;7.222;2022-09-27T04:55:55;11.57;;;0.40;;
75222;SDS011;63806;50.786;7.222;2022-09-27T04:58:21;8.00;;;0.45;;
75222;SDS011;63806;50.786;7.222;2022-09-27T05:00:47;9.88;;;0.10;;
75222;SDS011;63806;50.786;7.222;2022-09-27T05:03:14;14.82;;;0.52;;
75222;SDS011;63806;50.786;7.222;2022-09-27T05:05:39;2.83;;;0.57;;
75222;SDS011;63806;50.786;7.222;2022-09-27T05:08:05;1.40;;;0.28;;
75222;SDS011;63806;50.786;7.222;2022-09-27T05:10:31;1.95;;;0.55;;
75222;SDS011;63806;50.786;7.222;2022-09-27T05:12:56;2.63;;;0.30;;
75222;SDS011;63806;50.786;7.222;2022-09-27T05:15:22;1.05;;;0.22;;
75222;SDS011;63806;50.786;7.222;2022-09-27T05:17:49;0.60;;;0.35;;
75222;SDS011;63806;50.786;7.222;2022-09-27T05:20:16;2.65;;;0.00;;
75222;SDS011;63806;50.786;7.222;2022-09-27T05:22:41;1.23;;;0.25;;
75222;SDS011;63806;50.786;7.222;2022-09-27T05:25:07;1.43;;;0.20;;
75222;SDS011;63806;50.786;7.222;2022-09-27T05:27:32;3.17;;;0.15;;
75222;SDS011;63806;50.786;7.222;2022-09-27T05:29:58;1.45;;;0.20;;
75222;SDS011;63806;50.786;7.222;2022-09-27T05:32:25;1.45;;;0.00;;
75222;SDS011;63806;50.786;7.222;2022-09-27T05:34:51;3.38;;;0.60;;
75222;SDS011;63806;50.786;7.222;2022-09-27T05:37:18;1.83;;;0.40;;
75222;SDS011;63806;50.786;7.222;2022-09-27T05:39:44;1.25;;;0.10;;
75222;SDS011;63806;50.786;7.222;2022-09-27T05:42:10;1.67;;;0.22;;
75222;SDS011;63806;50.786;7.222;2022-09-27T05:44:39;2.40;;;0.00;;
75222;SDS011;63806;50.786;7.222;2022-09-27T05:47:05;1.17;;;0.10;;
75222;SDS011;63806;50.786;7.222;2022-09-27T05:49:31;1.48;;;0.30;;
75222;SDS011;63806;50.786;7.222;2022-09-27T05:51:57;2.22;;;1.63;;
75222;SDS011;63806;50.786;7.222;2022-09-27T05:54:23;3.58;;;0.03;;
75222;SDS011;63806;50.786;7.222;2022-09-27T05:56:48;3.53;;;0.10;;
75222;SDS011;63806;50.786;7.222;2022-09-27T05:59:15;0.52;;;0.10;;
75222;SDS011;63806;50.786;7.222;2022-09-27T06:01:40;1.10;;;0.10;;
75222;SDS011;63806;50.786;7.222;2022-09-27T06:04:06;2.33;;;0.45;;
75222;SDS011;63806;50.786;7.222;2022-09-27T06:06:33;2.03;;;0.25;;
75222;SDS011;63806;50.786;7.222;2022-09-27T06:09:00;1.98;;;0.00;;
75222;SDS011;63806;50.786;7.222;2022-09-27T06:11:26;2.55;;;0.63;;
75222;SDS011;63806;50.786;7.222;2022-09-27T06:13:52;1.05;;;0.00;;
75222;SDS011;63806;50.786;7.222;2022-09-27T06:16:17;0.57;;;0.03;;
75222;SDS011;63806;50.786;7.222;2022-09-27T06:18:43;2.47;;;0.63;;
75222;SDS011;63806;50.786;7.222;2022-09-27T06:21:08;1.30;;;0.30;;
75222;SDS011;63806;50.786;7.222;2022-09-27T06:23:34;1.02;;;0.10;;
75222;SDS011;63806;50.786;7.222;2022-09-27T06:26:03;1.25;;;0.15;;
75222;SDS011;63806;50.786;7.222;2022-09-27T06:28:30;0.98;;;0.00;;
75222;SDS011;63806;50.786;7.222;2022-09-27T06:30:58;1.38;;;0.10;;
75222;SDS011;63806;50.786;7.222;2022-09-27T06:33:25;1.80;;;0.03;;
75222;SDS011;63806;50.786;7.222;2022-09-27T06:35:52;1.70;;;0.00;;
75222;SDS011;63806;50.786;7.222;2022-09-27T06:38:18;0.95;;;0.00;;
75222;SDS011;63806;50.786;7.222;2022-09-27T06:40:46;2.45;;;0.80;;
75222;SDS011;63806;50.786;7.222;2022-09-27T06:43:13;0.90;;;0.10;;
75222;SDS011;63806;50.786;7.222;2022-09-27T06:45:39;1.67;;;0.00;;
75222;SDS011;63806;50.786;7.222;2022-09-27T06:48:06;1.52;;;0.10;;
75222;SDS011;63806;50.786;7.222;2022-09-27T06:50:36;1.80;;;0.00;;
75222;SDS011;63806;50.786;7.222;2022-09-27T06:53:03;1.05;;;0.00;;
75222;SDS011;63806;50.786;7.222;2022-09-27T06:55:30;1.25;;;0.00;;
75222;SDS011;63806;50.786;7.222;2022-09-27T06:57:57;0.93;;;0.00;;
75222;SDS011;63806;50.786;7.222;2022-09-27T07:00:43;1.02;;;0.15;;
75222;SDS011;63806;50.786;7.222;2022-09-27T07:03:10;1.05;;;0.30;;
75222;SDS011;63806;50.786;7.222;2022-09-27T07:05:37;1.75;;;0.30;;
75222;SDS011;63806;50.786;7.222;2022-09-27T07:08:03;0.73;;;0.73;;
75222;SDS011;63806;50.786;7.222;2022-09-27T07:10:29;0.77;;;0.77;;
75222;SDS011;63806;50.786;7.222;2022-09-27T07:13:07;1.80;;;0.00;;
75222;SDS011;63806;50.786;7.222;2022-09-27T07:15:34;0.73;;;0.00;;
75222;SDS011;63806;50.786;7.222;2022-09-27T07:18:05;1.05;;;0.00;;
75222;SDS011;63806;50.786;7.222;2022-09-27T07:20:32;0.52;;;0.17;;
75222;SDS011;63806;50.786;7.222;2022-09-27T07:23:01;0.35;;;0.30;;
75222;SDS011;63806;50.786;7.222;2022-09-27T07:25:27;0.40;;;0.00;;
75222;SDS011;63806;50.786;7.222;2022-09-27T07:27:52;0.40;;;0.00;;
75222;SDS011;63806;50.786;7.222;2022-09-27T07:30:18;1.17;;;0.00;;
75222;SDS011;63806;50.786;7.222;2022-09-27T07:32:44;0.90;;;0.00;;
75222;SDS011;63806;50.786;7.222;2022-09-27T07:35:10;0.30;;;0.00;;
75222;SDS011;63806;50.786;7.222;2022-09-27T07:37:36;1.58;;;1.48;;
75222;SDS011;63806;50.786;7.222;2022-09-27T07:40:04;0.95;;;0.20;;
75222;SDS011;63806;50.786;7.222;2022-09-27T07:42:31;0.95;;;0.65;;
75222;SDS011;63806;50.786;7.222;2022-09-27T07:44:57;2.42;;;0.10;;
75222;SDS011;63806;50.786;7.222;2022-09-27T07:47:23;0.50;;;0.13;;
75222;SDS011;63806;50.786;7.222;2022-09-27T07:49:50;1.92;;;0.00;;
75222;SDS011;63806;50.786;7.222;2022-09-27T07:52:16;1.85;;;0.00;;
75222;SDS011;63806;50.786;7.222;2022-09-27T07:54:45;0.98;;;0.00;;
75222;SDS011;63806;50.786;7.222;2022-09-27T07:57:11;0.30;;;0.03;;
75222;SDS011;63806;50.786;7.222;2022-09-27T07:59:37;0.20;;;0.10;;
75222;SDS011;63806;50.786;7.222;2022-09-27T08:02:03;0.85;;;0.10;;
75222;SDS011;63806;50.786;7.222;2022-09-27T08:04:28;1.73;;;0.00;;
75222;SDS011;63806;50.786;7.222;2022-09-27T08:06:54;0.57;;;0.00;;
75222;SDS011;63806;50.786;7.222;2022-09-27T08:09:19;0.80;;;0.10;;
75222;SDS011;63806;50.786;7.222;2022-09-27T08:11:45;1.10;;;1.10;;
75222;SDS011;63806;50.786;7.222;2022-09-27T08:14:10;0.63;;;0.63;;
75222;SDS011;63806;50.786;7.222;2022-09-27T08:16:36;0.95;;;0.00;;
75222;SDS011;63806;50.786;7.222;2022-09-27T08:19:01;0.43;;;0.10;;
75222;SDS011;63806;50.786;7.222;2022-09-27T08:21:27;0.75;;;0.10;;
75222;SDS011;63806;50.786;7.222;2022-09-27T08:23:54;0.38;;;0.00;;
75222;SDS011;63806;50.786;7.222;2022-09-27T08:26:20;1.58;;;0.10;;
75222;SDS011;63806;50.786;7.222;2022-09-27T08:28:46;0.82;;;0.20;;
75222;SDS011;63806;50.786;7.222;2022-09-27T08:31:12;0.88;;;0.10;;
75222;SDS011;63806;50.786;7.222;2022-09-27T08:33:37;0.35;;;0.13;;
75222;SDS011;63806;50.786;7.222;2022-09-27T08:36:03;0.57;;;0.00;;
75222;SDS011;63806;50.786;7.222;2022-09-27T08:38:29;0.25;;;0.00;;
75222;SDS011;63806;50.786;7.222;2022-09-27T08:40:55;0.93;;;0.90;;
75222;SDS011;63806;50.786;7.222;2022-09-27T08:49:15;0.85;;;0.20;;
75222;SDS011;63806;50.786;7.222;2022-09-27T08:51:43;0.73;;;0.20;;
75222;SDS011;63806;50.786;7.222;2022-09-27T08:54:17;0.10;;;0.00;;
75222;SDS011;63806;50.786;7.222;2022-09-27T08:56:44;0.77;;;0.77;;
75222;SDS011;63806;50.786;7.222;2022-09-27T08:59:12;0.40;;;0.03;;
75222;SDS011;63806;50.786;7.222;2022-09-27T09:01:38;0.40;;;0.00;;
75222;SDS011;63806;50.786;7.222;2022-09-27T09:04:05;0.57;;;0.57;;
75222;SDS011;63806;50.786;7.222;2022-09-27T09:09:26;0.38;;;0.10;;
75222;SDS011;63806;50.786;7.222;2022-09-27T09:42:22;0.35;;;0.10;;
75222;SDS011;63806;50.786;7.222;2022-09-27T09:47:37;0.20;;;0.00;;
75222;SDS011;63806;50.786;7.222;2022-09-27T09:52:46;0.32;;;0.00;;
75222;SDS011;63806;50.786;7.222;2022-09-27T09:55:23;0.55;;;0.28;;
75222;SDS011;63806;50.786;7.222;2022-09-27T10:00:25;0.20;;;0.20;;
75222;SDS011;63806;50.786;7.222;2022-09-27T10:02:51;0.22;;;0.10;;
75222;SDS011;63806;50.786;7.222;2022-09-27T10:05:20;0.93;;;0.77;;
75222;SDS011;63806;50.786;7.222;2022-09-27T10:07:47;0.43;;;0.30;;
75222;SDS011;63806;50.786;7.222;2022-09-27T10:10:16;0.40;;;0.00;;
75222;SDS011;63806;50.786;7.222;2022-09-27T10:12:43;0.25;;;0.00;;
75222;SDS011;63806;50.786;7.222;2022-09-27T10:15:13;0.57;;;0.00;;
75222;SDS011;63806;50.786;7.222;2022-09-27T10:17:43;0.60;;;0.60;;
75222;SDS011;63806;50.786;7.222;2022-09-27T10:23:12;0.25;;;0.00;;
75222;SDS011;63806;50.786;7.222;2022-09-27T10:25:44;0.10;;;0.00;;
75222;SDS011;63806;50.786;7.222;2022-09-27T10:28:24;0.93;;;0.20;;
75222;SDS011;63806;50.786;7.222;2022-09-27T10:31:08;0.30;;;0.00;;
75222;SDS011;63806;50.786;7.222;2022-09-27T10:33:36;0.30;;;0.30;;
75222;SDS011;63806;50.786;7.222;2022-09-27T10:36:22;0.40;;;0.10;;
75222;SDS011;63806;50.786;7.222;2022-09-27T10:38:53;0.50;;;0.00;;
75222;SDS011;63806;50.786;7.222;2022-09-27T10:43:51;0.40;;;0.05;;
75222;SDS011;63806;50.786;7.222;2022-09-27T10:51:48;0.15;;;0.00;;
75222;SDS011;63806;50.786;7.222;2022-09-27T10:54:21;1.00;;;0.35;;
75222;SDS011;63806;50.786;7.222;2022-09-27T10:56:55;0.45;;;0.10;;
75222;SDS011;63806;50.786;7.222;2022-09-27T10:59:22;1.08;;;0.28;;
75222;SDS011;63806;50.786;7.222;2022-09-27T11:01:49;1.13;;;1.13;;
75222;SDS011;63806;50.786;7.222;2022-09-27T11:06:50;0.20;;;0.00;;
75222;SDS011;63806;50.786;7.222;2022-09-27T11:09:22;0.50;;;0.00;;
75222;SDS011;63806;50.786;7.222;2022-09-27T11:12:04;0.15;;;0.00;;
75222;SDS011;63806;50.786;7.222;2022-09-27T11:14:33;0.20;;;0.13;;
75222;SDS011;63806;50.786;7.222;2022-09-27T11:28:09;0.45;;;0.45;;
75222;SDS011;63806;50.786;7.222;2022-09-27T11:33:35;0.20;;;0.00;;
75222;SDS011;63806;50.786;7.222;2022-09-27T11:50:33;0.22;;;0.03;;
75222;SDS011;63806;50.786;7.222;2022-09-27T11:58:30;1.15;;;0.13;;
75222;SDS011;63806;50.786;7.222;2022-09-27T12:01:28;0.45;;;0.08;;
75222;SDS011;63806;50.786;7.222;2022-09-27T12:07:09;1.45;;;0.75;;
75222;SDS011;63806;50.786;7.222;2022-09-27T12:09:38;2.20;;;0.10;;
75222;SDS011;63806;50.786;7.222;2022-09-27T12:12:12;0.52;;;0.00;;
75222;SDS011;63806;50.786;7.222;2022-09-27T12:17:15;0.68;;;0.68;;
75222;SDS011;63806;50.786;7.222;2022-09-27T12:19:45;1.55;;;1.45;;
75222;SDS011;63806;50.786;7.222;2022-09-27T12:22:15;0.30;;;0.13;;
75222;SDS011;63806;50.786;7.222;2022-09-27T12:24:45;0.22;;;0.00;;
75222;SDS011;63806;50.786;7.222;2022-09-27T12:27:15;0.30;;;0.00;;
75222;SDS011;63806;50.786;7.222;2022-09-27T12:29:45;0.20;;;0.10;;
75222;SDS011;63806;50.786;7.222;2022-09-27T12:42:49;0.50;;;0.20;;
75222;SDS011;63806;50.786;7.222;2022-09-27T12:45:18;0.55;;;0.10;;
75222;SDS011;63806;50.786;7.222;2022-09-27T12:51:13;0.40;;;0.22;;
75222;SDS011;63806;50.786;7.222;2022-09-27T12:59:11;1.10;;;0.10;;
75222;SDS011;63806;50.786;7.222;2022-09-27T13:02:11;1.08;;;0.00;;
75222;SDS011;63806;50.786;7.222;2022-09-27T13:11:10;3.15;;;0.10;;
75222;SDS011;63806;50.786;7.222;2022-09-27T13:13:56;0.82;;;0.03;;
75222;SDS011;63806;50.786;7.222;2022-09-27T13:16:24;1.45;;;0.10;;
75222;SDS011;63806;50.786;7.222;2022-09-27T13:22:02;2.72;;;0.35;;
75222;SDS011;63806;50.786;7.222;2022-09-27T13:27:01;0.80;;;0.10;;
75222;SDS011;63806;50.786;7.222;2022-09-27T13:29:47;1.17;;;0.00;;
75222;SDS011;63806;50.786;7.222;2022-09-27T13:32:23;3.05;;;0.00;;
75222;SDS011;63806;50.786;7.222;2022-09-27T13:38:00;4.03;;;0.60;;
75222;SDS011;63806;50.786;7.222;2022-09-27T13:45:23;1.08;;;0.03;;
75222;SDS011;63806;50.786;7.222;2022-09-27T13:47:53;2.05;;;0.00;;
75222;SDS011;63806;50.786;7.222;2022-09-27T13:50:23;1.55;;;0.00;;
75222;SDS011;63806;50.786;7.222;2022-09-27T13:55:46;0.43;;;0.00;;
75222;SDS011;63806;50.786;7.222;2022-09-27T14:00:48;1.23;;;0.03;;
75222;SDS011;63806;50.786;7.222;2022-09-27T14:06:22;1.50;;;0.15;;
75222;SDS011;63806;50.786;7.222;2022-09-27T14:09:03;0.98;;;0.25;;
75222;SDS011;63806;50.786;7.222;2022-09-27T14:11:34;2.67;;;0.20;;
75222;SDS011;63806;50.786;7.222;2022-09-27T14:14:03;5.13;;;0.13;;
75222;SDS011;63806;50.786;7.222;2022-09-27T14:16:31;5.22;;;0.00;;
75222;SDS011;63806;50.786;7.222;2022-09-27T14:19:00;3.13;;;0.03;;
75222;SDS011;63806;50.786;7.222;2022-09-27T14:26:50;1.13;;;0.10;;
75222;SDS011;63806;50.786;7.222;2022-09-27T14:29:38;1.38;;;0.00;;
75222;SDS011;63806;50.786;7.222;2022-09-27T14:32:11;4.63;;;0.35;;
75222;SDS011;63806;50.786;7.222;2022-09-27T14:34:38;2.72;;;0.10;;
75222;SDS011;63806;50.786;7.222;2022-09-27T14:37:04;2.80;;;1.08;;
75222;SDS011;63806;50.786;7.222;2022-09-27T14:39:55;4.05;;;0.30;;
75222;SDS011;63806;50.786;7.222;2022-09-27T14:42:24;2.53;;;0.00;;
75222;SDS011;63806;50.786;7.222;2022-09-27T14:44:52;1.98;;;0.10;;
75222;SDS011;63806;50.786;7.222;2022-09-27T14:47:22;2.58;;;0.00;;
75222;SDS011;63806;50.786;7.222;2022-09-27T14:50:00;3.67;;;0.00;;
75222;SDS011;63806;50.786;7.222;2022-09-27T14:52:37;1.10;;;0.05;;
75222;SDS011;63806;50.786;7.222;2022-09-27T14:55:16;4.50;;;0.00;;
75222;SDS011;63806;50.786;7.222;2022-09-27T14:57:44;0.63;;;0.57;;
75222;SDS011;63806;50.786;7.222;2022-09-27T15:02:41;1.25;;;0.10;;
75222;SDS011;63806;50.786;7.222;2022-09-27T15:05:14;2.50;;;0.00;;
75222;SDS011;63806;50.786;7.222;2022-09-27T15:07:42;1.45;;;0.00;;
75222;SDS011;63806;50.786;7.222;2022-09-27T15:10:17;2.30;;;0.10;;
75222;SDS011;63806;50.786;7.222;2022-09-27T15:12:44;0.70;;;0.10;;
75222;SDS011;63806;50.786;7.222;2022-09-27T15:15:13;3.38;;;0.47;;
75222;SDS011;63806;50.786;7.222;2022-09-27T15:17:43;0.85;;;0.03;;
75222;SDS011;63806;50.786;7.222;2022-09-27T15:20:23;3.65;;;0.20;;
75222;SDS011;63806;50.786;7.222;2022-09-27T15:22:49;1.90;;;0.08;;
75222;SDS011;63806;50.786;7.222;2022-09-27T15:27:49;3.70;;;0.30;;
75222;SDS011;63806;50.786;7.222;2022-09-27T15:30:18;2.13;;;0.10;;
75222;SDS011;63806;50.786;7.222;2022-09-27T15:32:53;1.23;;;0.10;;
75222;SDS011;63806;50.786;7.222;2022-09-27T15:35:24;1.10;;;0.13;;
75222;SDS011;63806;50.786;7.222;2022-09-27T15:38:08;1.55;;;0.00;;
75222;SDS011;63806;50.786;7.222;2022-09-27T15:46:02;1.70;;;0.03;;
75222;SDS011;63806;50.786;7.222;2022-09-27T15:48:30;1.25;;;0.10;;
75222;SDS011;63806;50.786;7.222;2022-09-27T15:50:57;2.97;;;0.20;;
75222;SDS011;63806;50.786;7.222;2022-09-27T15:55:58;2.28;;;0.10;;
75222;SDS011;63806;50.786;7.222;2022-09-27T15:58:24;0.95;;;0.10;;
75222;SDS011;63806;50.786;7.222;2022-09-27T16:00:51;2.05;;;0.55;;
75222;SDS011;63806;50.786;7.222;2022-09-27T16:03:18;0.70;;;0.10;;
75222;SDS011;63806;50.786;7.222;2022-09-27T16:05:43;1.73;;;0.00;;
75222;SDS011;63806;50.786;7.222;2022-09-27T16:08:09;1.83;;;0.10;;
75222;SDS011;63806;50.786;7.222;2022-09-27T16:10:36;3.58;;;0.00;;
75222;SDS011;63806;50.786;7.222;2022-09-27T16:13:03;0.35;;;0.00;;
75222;SDS011;63806;50.786;7.222;2022-09-27T16:15:29;1.17;;;0.10;;
75222;SDS011;63806;50.786;7.222;2022-09-27T16:17:55;1.02;;;0.10;;
75222;SDS011;63806;50.786;7.222;2022-09-27T16:20:22;0.52;;;0.40;;
75222;SDS011;63806;50.786;7.222;2022-09-27T16:22:51;2.03;;;1.17;;
75222;SDS011;63806;50.786;7.222;2022-09-27T16:25:18;0.40;;;0.10;;
75222;SDS011;63806;50.786;7.222;2022-09-27T16:27:44;0.85;;;0.00;;
75222;SDS011;63806;50.786;7.222;2022-09-27T16:30:10;2.05;;;0.10;;
75222;SDS011;63806;50.786;7.222;2022-09-27T16:32:43;1.88;;;1.00;;
75222;SDS011;63806;50.786;7.222;2022-09-27T16:35:10;1.15;;;0.20;;
75222;SDS011;63806;50.786;7.222;2022-09-27T16:37:37;1.08;;;0.15;;
75222;SDS011;63806;50.786;7.222;2022-09-27T16:40:04;0.77;;;0.10;;
75222;SDS011;63806;50.786;7.222;2022-09-27T16:42:31;1.63;;;0.08;;
75222;SDS011;63806;50.786;7.222;2022-09-27T16:44:56;0.75;;;0.20;;
75222;SDS011;63806;50.786;7.222;2022-09-27T16:47:21;0.87;;;0.10;;
75222;SDS011;63806;50.786;7.222;2022-09-27T16:49:47;0.40;;;0.00;;
75222;SDS011;63806;50.786;7.222;2022-09-27T16:52:31;0.80;;;0.10;;
75222;SDS011;63806;50.786;7.222;2022-09-27T16:54:57;3.40;;;0.10;;
75222;SDS011;63806;50.786;7.222;2022-09-27T16:57:23;1.83;;;0.10;;
75222;SDS011;63806;50.786;7.222;2022-09-27T16:59:49;1.17;;;0.95;;
75222;SDS011;63806;50.786;7.222;2022-09-27T17:02:15;1.40;;;0.15;;
75222;SDS011;63806;50.786;7.222;2022-09-27T17:04:42;1.55;;;1.45;;
75222;SDS011;63806;50.786;7.222;2022-09-27T17:07:07;1.02;;;0.10;;
75222;SDS011;63806;50.786;7.222;2022-09-27T17:09:32;1.87;;;0.50;;
75222;SDS011;63806;50.786;7.222;2022-09-27T17:11:58;1.10;;;0.10;;
75222;SDS011;63806;50.786;7.222;2022-09-27T17:14:23;1.10;;;0.20;;
75222;SDS011;63806;50.786;7.222;2022-09-27T17:16:49;0.60;;;0.25;;
75222;SDS011;63806;50.786;7.222;2022-09-27T17:19:15;0.80;;;0.10;;
75222;SDS011;63806;50.786;7.222;2022-09-27T17:21:42;0.88;;;0.03;;
75222;SDS011;63806;50.786;7.222;2022-09-27T17:24:08;2.13;;;1.20;;
75222;SDS011;63806;50.786;7.222;2022-09-27T17:26:34;1.00;;;0.25;;
75222;SDS011;63806;50.786;7.222;2022-09-27T17:28:59;0.55;;;0.00;;
75222;SDS011;63806;50.786;7.222;2022-09-27T17:31:26;1.02;;;0.35;;
75222;SDS011;63806;50.786;7.222;2022-09-27T17:33:53;1.17;;;0.10;;
75222;SDS011;63806;50.786;7.222;2022-09-27T17:36:19;0.40;;;0.00;;
75222;SDS011;63806;50.786;7.222;2022-09-27T17:38:47;0.93;;;0.28;;
75222;SDS011;63806;50.786;7.222;2022-09-27T17:41:14;1.95;;;1.65;;
75222;SDS011;63806;50.786;7.222;2022-09-27T17:43:41;0.93;;;0.00;;
75222;SDS011;63806;50.786;7.222;2022-09-27T17:46:14;2.22;;;0.85;;
75222;SDS011;63806;50.786;7.222;2022-09-27T17:48:40;0.55;;;0.10;;
75222;SDS011;63806;50.786;7.222;2022-09-27T17:51:24;1.63;;;0.10;;
75222;SDS011;63806;50.786;7.222;2022-09-27T17:53:50;1.37;;;0.70;;
75222;SDS011;63806;50.786;7.222;2022-09-27T17:56:16;0.50;;;0.20;;
75222;SDS011;63806;50.786;7.222;2022-09-27T17:58:45;0.70;;;0.03;;
75222;SDS011;63806;50.786;7.222;2022-09-27T18:01:15;0.30;;;0.00;;
75222;SDS011;63806;50.786;7.222;2022-09-27T18:03:42;0.63;;;0.03;;
75222;SDS011;63806;50.786;7.222;2022-09-27T18:06:09;2.05;;;0.60;;
75222;SDS011;63806;50.786;7.222;2022-09-27T18:08:36;0.40;;;0.00;;
75222;SDS011;63806;50.786;7.222;2022-09-27T18:11:06;1.55;;;0.10;;
75222;SDS011;63806;50.786;7.222;2022-09-27T18:13:33;1.42;;;0.17;;
75222;SDS011;63806;50.786;7.222;2022-09-27T18:16:10;0.90;;;0.00;;
75222;SDS011;63806;50.786;7.222;2022-09-27T18:18:36;1.15;;;0.10;;
75222;SDS011;63806;50.786;7.222;2022-09-27T18:21:06;0.90;;;0.03;;
75222;SDS011;63806;50.786;7.222;2022-09-27T18:23:38;1.33;;;0.20;;
75222;SDS011;63806;50.786;7.222;2022-09-27T18:26:05;0.63;;;0.10;;
75222;SDS011;63806;50.786;7.222;2022-09-27T18:28:34;1.88;;;0.38;;
75222;SDS011;63806;50.786;7.222;2022-09-27T18:31:02;1.13;;;0.10;;
75222;SDS011;63806;50.786;7.222;2022-09-27T18:33:30;0.45;;;0.08;;
75222;SDS011;63806;50.786;7.222;2022-09-27T18:36:00;0.60;;;0.40;;
75222;SDS011;63806;50.786;7.222;2022-09-27T18:38:30;0.93;;;0.20;;